Time;durP1;ratioP1;P1;durP2;ratioP2;P2;SDS_P1;SDS_P2;PMS_P1;PMS_P2;Temp;Humidity;BMP_temperature;BMP_pressure;BME280_temperature;BME280_humidity;BME280_pressure;Samples;Min_cycle;Max_cycle;Signal;HPM_P1;HPM_P2
2021/12/06 00:01:48;;;;;;;39.87;22.70;;;1.80;99.90;;;;;;5021301;28;20246;-79
2021/12/06 00:04:18;;;;;;;36.73;22.93;;;1.70;99.90;;;;;;5021659;28;20654;-79
2021/12/06 00:06:47;;;;;;;40.47;24.43;;;1.70;99.90;;;;;;5025704;28;20270;-80
2021/12/06 00:09:20;;;;;;;34.30;21.90;;;1.70;99.90;;;;;;5015199;28;20190;-80
2021/12/06 00:11:46;;;;;;;36.27;22.57;;;1.80;99.90;;;;;;5038015;28;20174;-80
2021/12/06 00:14:12;;;;;;;36.57;22.83;;;1.70;99.90;;;;;;5022491;28;20211;-79
2021/12/06 00:16:38;;;;;;;35.07;21.40;;;1.70;99.90;;;;;;5014315;28;20284;-80
2021/12/06 00:19:06;;;;;;;37.20;22.10;;;1.70;99.90;;;;;;5039081;28;20201;-80
2021/12/06 00:21:32;;;;;;;37.37;22.17;;;1.70;99.90;;;;;;5015859;28;20651;-79
2021/12/06 00:23:58;;;;;;;33.83;21.20;;;1.70;99.90;;;;;;5028382;28;20626;-79
2021/12/06 00:26:26;;;;;;;37.00;21.83;;;1.70;99.90;;;;;;5034587;28;20202;-79
2021/12/06 00:28:57;;;;;;;32.53;19.73;;;1.60;99.90;;;;;;5038627;28;20165;-80
2021/12/06 00:31:25;;;;;;;36.57;21.70;;;1.70;99.90;;;;;;5029969;28;20205;-80
2021/12/06 00:33:57;;;;;;;31.17;20.63;;;1.90;99.90;;;;;;5039742;28;20209;-79
2021/12/06 00:36:28;;;;;;;34.73;22.23;;;1.90;99.90;;;;;;5026507;28;20288;-78
2021/12/06 00:38:54;;;;;;;31.63;20.87;;;2.10;99.90;;;;;;5022116;28;20178;-79
2021/12/06 00:41:20;;;;;;;32.53;20.83;;;2.30;99.90;;;;;;5020533;28;20170;-79
2021/12/06 00:43:46;;;;;;;34.13;20.97;;;2.30;99.90;;;;;;5006198;28;20201;-79
2021/12/06 00:46:13;;;;;;;31.83;20.33;;;2.30;99.90;;;;;;5019606;28;20246;-78
2021/12/06 00:48:52;;;;;;;30.23;19.50;;;2.10;99.90;;;;;;5046361;28;20212;-79
2021/12/06 00:51:19;;;;;;;31.50;20.03;;;2.30;99.90;;;;;;5035721;28;20182;-79
2021/12/06 00:53:45;;;;;;;33.27;21.00;;;2.30;99.90;;;;;;5013831;28;20620;-79
2021/12/06 00:56:12;;;;;;;29.37;18.87;;;2.10;99.90;;;;;;5038868;28;20233;-77
2021/12/06 00:58:40;;;;;;;29.30;20.03;;;2.10;99.90;;;;;;5038348;28;20168;-78
2021/12/06 01:01:07;;;;;;;31.00;19.47;;;2.20;99.90;;;;;;5031041;28;20750;-79
2021/12/06 01:03:36;;;;;;;34.20;21.20;;;2.20;99.90;;;;;;5030400;28;20182;-80
2021/12/06 01:06:03;;;;;;;30.13;21.63;;;2.20;99.90;;;;;;5017668;28;20193;-79
2021/12/06 01:08:28;;;;;;;30.80;19.37;;;2.20;99.90;;;;;;5004106;28;20246;-79
2021/12/06 01:10:55;;;;;;;31.37;19.50;;;2.20;99.90;;;;;;5034005;28;20206;-80
2021/12/06 01:13:24;;;;;;;32.33;20.30;;;2.20;99.90;;;;;;5035807;28;20179;-79
2021/12/06 01:15:50;;;;;;;33.70;20.73;;;2.40;99.90;;;;;;5038539;28;20194;-80
2021/12/06 01:18:18;;;;;;;28.03;18.87;;;2.40;99.90;;;;;;5036795;28;20292;-80
2021/12/06 01:20:54;;;;;;;29.83;18.73;;;2.40;99.90;;;;;;5034360;28;20241;-80
2021/12/06 01:23:24;;;;;;;30.97;19.73;;;2.50;99.90;;;;;;5007068;28;20174;-79
2021/12/06 01:26:12;;;;;;;29.93;19.37;;;2.60;99.90;;;;;;5016731;28;20205;-79
2021/12/06 01:39:07;;;;;;;30.87;19.23;;;2.70;99.90;;;;;;5054935;28;20613;-78
2021/12/06 01:39:35;;;;;;;28.93;17.53;;;2.60;99.90;;;;;;5056544;28;20189;-79
2021/12/06 01:42:05;;;;;;;29.27;18.20;;;2.80;99.90;;;;;;5034199;28;20665;-79
2021/12/06 01:44:35;;;;;;;29.97;19.47;;;2.70;99.90;;;;;;5035974;28;20641;-79
2021/12/06 01:47:18;;;;;;;30.77;19.87;;;2.60;99.90;;;;;;5037994;28;20212;-79
2021/12/06 01:49:52;;;;;;;31.13;19.87;;;2.50;99.90;;;;;;5040063;28;20174;-79
2021/12/06 01:52:42;;;;;;;28.97;18.77;;;2.50;99.90;;;;;;5038450;28;20186;-79
2021/12/06 01:55:11;;;;;;;31.77;19.17;;;2.40;99.90;;;;;;5031742;28;20209;-79
2021/12/06 01:57:37;;;;;;;32.67;19.60;;;2.50;99.90;;;;;;5035144;28;20186;-78
2021/12/06 02:00:30;;;;;;;28.63;18.43;;;2.40;99.90;;;;;;5027706;28;20205;-79
2021/12/06 02:03:02;;;;;;;28.43;17.90;;;2.40;99.90;;;;;;5024236;28;20176;-78
2021/12/06 02:05:34;;;;;;;28.43;18.43;;;2.40;99.90;;;;;;5018481;28;20253;-78
2021/12/06 02:08:04;;;;;;;28.67;18.77;;;2.10;99.90;;;;;;5049399;28;20184;-77
2021/12/06 02:10:30;;;;;;;30.37;18.97;;;2.10;99.90;;;;;;5032859;28;20179;-79
2021/12/06 02:12:56;;;;;;;32.40;19.63;;;2.00;99.90;;;;;;5035775;28;20179;-79
2021/12/06 02:18:02;;;;;;;32.57;19.97;;;2.00;99.90;;;;;;5032269;28;20170;-79
2021/12/06 02:20:30;;;;;;;31.40;18.83;;;2.10;99.90;;;;;;5045541;28;20188;-79
2021/12/06 02:22:56;;;;;;;32.67;19.80;;;2.10;99.90;;;;;;5026471;28;20175;-79
2021/12/06 02:25:22;;;;;;;28.17;19.20;;;2.10;99.90;;;;;;5024821;28;20257;-78
2021/12/06 02:27:51;;;;;;;29.57;19.47;;;1.90;99.90;;;;;;5021940;28;20178;-79
2021/12/06 02:30:20;;;;;;;29.57;19.40;;;2.00;99.90;;;;;;5017080;28;20182;-79
2021/12/06 02:32:47;;;;;;;29.97;19.27;;;2.10;99.90;;;;;;5043779;28;20422;-80
2021/12/06 02:35:17;;;;;;;29.73;19.27;;;2.20;99.90;;;;;;5030529;28;20301;-79
2021/12/06 02:37:43;;;;;;;27.53;19.13;;;2.30;99.90;;;;;;5024743;28;20186;-80
2021/12/06 02:40:15;;;;;;;30.17;20.23;;;2.30;99.90;;;;;;5002560;28;20182;-78
2021/12/06 02:42:43;;;;;;;30.20;19.63;;;2.30;99.90;;;;;;5007634;28;20559;-80
2021/12/06 02:45:12;;;;;;;33.13;19.97;;;2.10;99.90;;;;;;5017877;28;20198;-79
2021/12/06 02:47:39;;;;;;;29.60;19.70;;;2.20;99.90;;;;;;5022394;28;20182;-80
2021/12/06 02:50:09;;;;;;;29.23;20.20;;;2.00;99.90;;;;;;5031111;28;20277;-80
2021/12/06 02:52:36;;;;;;;32.47;20.63;;;1.90;99.90;;;;;;5054152;28;20174;-79
2021/12/06 02:55:11;;;;;;;31.00;18.87;;;1.90;99.90;;;;;;5029765;28;20818;-78
2021/12/06 02:57:38;;;;;;;32.80;20.90;;;1.90;99.90;;;;;;5055740;28;20166;-77
2021/12/06 03:00:09;;;;;;;31.37;20.87;;;2.00;99.90;;;;;;5025667;28;20182;-76
2021/12/06 03:02:35;;;;;;;30.67;21.00;;;2.00;99.90;;;;;;5053438;28;20174;-79
2021/12/06 03:05:03;;;;;;;31.43;21.10;;;1.90;99.90;;;;;;5015545;28;20237;-79
2021/12/06 03:07:31;;;;;;;32.93;21.00;;;1.90;99.90;;;;;;5048619;28;20268;-79
2021/12/06 03:09:57;;;;;;;32.47;21.17;;;1.80;99.90;;;;;;5024025;28;20186;-79
2021/12/06 03:12:26;;;;;;;31.47;21.47;;;1.90;99.90;;;;;;5048532;28;20235;-79
2021/12/06 03:14:56;;;;;;;30.33;20.23;;;1.80;99.90;;;;;;5020202;28;20206;-79
2021/12/06 03:17:26;;;;;;;34.83;20.43;;;1.70;99.90;;;;;;5030605;28;20170;-80
2021/12/06 03:19:52;;;;;;;34.63;21.97;;;1.70;99.90;;;;;;5013128;28;20166;-79
2021/12/06 03:22:19;;;;;;;34.07;21.70;;;1.70;99.90;;;;;;5022054;28;20647;-80
2021/12/06 03:24:49;;;;;;;32.87;20.90;;;1.80;99.90;;;;;;5017231;28;20178;-79
2021/12/06 03:27:16;;;;;;;31.17;20.17;;;1.70;99.90;;;;;;5019078;28;20213;-79
2021/12/06 03:29:43;;;;;;;32.30;20.60;;;1.80;99.90;;;;;;5022349;28;20189;-80
2021/12/06 03:32:11;;;;;;;29.80;20.40;;;1.70;99.90;;;;;;5044408;28;20177;-80
2021/12/06 03:34:37;;;;;;;32.60;20.93;;;1.70;99.90;;;;;;5032039;28;20203;-80
2021/12/06 03:37:06;;;;;;;32.90;20.40;;;1.60;99.90;;;;;;5043175;23;20278;-79
2021/12/06 03:39:39;;;;;;;30.63;19.63;;;1.60;99.90;;;;;;5039435;28;20224;-79
2021/12/06 03:42:09;;;;;;;27.93;19.37;;;1.70;99.90;;;;;;5029867;28;20181;-79
2021/12/06 03:44:38;;;;;;;32.07;19.33;;;1.60;99.90;;;;;;5031282;28;20178;-79
2021/12/06 03:47:08;;;;;;;27.17;18.70;;;1.50;99.90;;;;;;5027847;28;20194;-79
2021/12/06 03:49:36;;;;;;;30.67;20.37;;;1.80;99.90;;;;;;5010454;28;20174;-78
2021/12/06 03:52:06;;;;;;;31.03;20.77;;;1.80;99.90;;;;;;5008453;28;20187;-78
2021/12/06 03:54:33;;;;;;;30.97;20.03;;;1.80;99.90;;;;;;5009733;28;20305;-79
2021/12/06 03:57:00;;;;;;;32.60;20.70;;;2.00;99.90;;;;;;5028878;28;20186;-79
2021/12/06 03:59:27;;;;;;;27.40;19.60;;;2.00;99.90;;;;;;5010205;28;20198;-79
2021/12/06 04:01:53;;;;;;;29.80;19.70;;;2.10;99.90;;;;;;5018667;28;20225;-79
2021/12/06 04:04:22;;;;;;;30.10;19.70;;;2.10;99.90;;;;;;5012060;28;20206;-79
2021/12/06 04:06:50;;;;;;;27.73;19.20;;;2.10;99.90;;;;;;5012089;28;20222;-79
2021/12/06 04:09:16;;;;;;;30.50;20.90;;;2.10;99.90;;;;;;5012122;28;20178;-80
2021/12/06 04:11:46;;;;;;;33.20;20.83;;;2.10;99.90;;;;;;5013474;28;20187;-80
2021/12/06 04:14:13;;;;;;;29.97;19.13;;;2.00;99.90;;;;;;5032135;28;20214;-80
2021/12/06 04:16:39;;;;;;;30.87;21.50;;;1.80;99.90;;;;;;5002223;28;20206;-81
2021/12/06 04:19:07;;;;;;;29.90;20.13;;;2.00;99.90;;;;;;5019494;28;20198;-81
2021/12/06 04:21:34;;;;;;;30.67;18.90;;;2.00;99.90;;;;;;5018698;28;20265;-79
2021/12/06 04:24:02;;;;;;;28.83;20.37;;;2.00;99.90;;;;;;5014726;28;20194;-77
2021/12/06 04:26:30;;;;;;;29.67;18.90;;;2.00;99.90;;;;;;4998557;28;20227;-79
2021/12/06 04:28:59;;;;;;;32.57;20.07;;;2.10;99.90;;;;;;4998787;28;20213;-79
2021/12/06 04:31:33;;;;;;;26.00;18.47;;;2.20;99.90;;;;;;5000356;28;20178;-79
2021/12/06 04:33:59;;;;;;;26.37;17.30;;;2.20;99.90;;;;;;5003343;28;20197;-79
2021/12/06 04:36:28;;;;;;;30.87;19.67;;;2.10;99.90;;;;;;5035815;28;20210;-79
2021/12/06 04:38:53;;;;;;;33.50;19.67;;;1.80;99.90;;;;;;5004270;28;20181;-78
2021/12/06 04:41:26;;;;;;;31.00;18.77;;;1.60;99.90;;;;;;5027118;28;20209;-78
2021/12/06 04:43:53;;;;;;;29.80;19.00;;;1.40;99.90;;;;;;5005948;28;20179;-78
2021/12/06 04:46:19;;;;;;;27.17;18.20;;;1.40;99.90;;;;;;5020933;28;20697;-78
2021/12/06 04:48:45;;;;;;;27.07;18.00;;;1.20;99.90;;;;;;5014115;28;20175;-79
2021/12/06 04:51:11;;;;;;;30.07;19.87;;;1.20;99.90;;;;;;5039858;28;20199;-79
2021/12/06 04:53:38;;;;;;;30.17;17.97;;;1.20;99.90;;;;;;5019421;28;20203;-78
2021/12/06 04:56:06;;;;;;;30.00;18.90;;;1.30;99.90;;;;;;5037145;28;20194;-77
2021/12/06 04:58:41;;;;;;;24.67;16.97;;;1.50;99.90;;;;;;5015106;28;20173;-78
2021/12/06 05:01:14;;;;;;;24.20;16.87;;;1.50;99.90;;;;;;5018401;28;20171;-77
2021/12/06 05:03:41;;;;;;;27.00;17.80;;;1.50;99.90;;;;;;5022951;28;20252;-78
2021/12/06 05:06:20;;;;;;;24.27;16.23;;;1.60;99.90;;;;;;5031727;28;20194;-78
2021/12/06 05:08:50;;;;;;;26.17;15.60;;;1.80;99.90;;;;;;5016543;28;20634;-78
2021/12/06 05:11:18;;;;;;;26.30;15.73;;;1.90;99.90;;;;;;5025707;28;20175;-78
2021/12/06 05:13:46;;;;;;;22.73;14.87;;;1.90;99.90;;;;;;5028015;28;20218;-78
2021/12/06 05:16:14;;;;;;;24.53;15.57;;;1.80;99.90;;;;;;5032601;28;20198;-78
2021/12/06 05:18:43;;;;;;;25.17;16.80;;;1.80;99.90;;;;;;5018781;28;20171;-77
2021/12/06 05:21:09;;;;;;;25.13;16.93;;;1.80;99.90;;;;;;5042640;28;20646;-79
2021/12/06 05:23:38;;;;;;;25.40;16.63;;;1.70;99.90;;;;;;5019356;28;20170;-77
2021/12/06 05:26:04;;;;;;;21.87;14.67;;;1.80;99.90;;;;;;5028922;28;20284;-78
2021/12/06 05:28:38;;;;;;;20.97;14.90;;;1.80;99.90;;;;;;5021392;28;20174;-78
2021/12/06 05:31:12;;;;;;;23.40;15.67;;;1.80;99.90;;;;;;5038187;28;20178;-79
2021/12/06 05:33:53;;;;;;;24.73;15.43;;;1.70;99.90;;;;;;5023352;28;20205;-78
2021/12/06 05:36:18;;;;;;;24.70;16.37;;;1.50;99.90;;;;;;5009846;28;20207;-78
2021/12/06 05:38:44;;;;;;;23.97;15.03;;;1.30;99.90;;;;;;5017635;28;20182;-79
2021/12/06 05:41:10;;;;;;;26.67;16.83;;;1.30;99.90;;;;;;5023827;28;20182;-78
2021/12/06 05:43:36;;;;;;;22.83;14.50;;;1.50;99.90;;;;;;5022002;28;20194;-78
2021/12/06 05:46:02;;;;;;;24.27;15.53;;;1.60;99.90;;;;;;5017915;28;20202;-78
2021/12/06 05:48:29;;;;;;;25.20;15.63;;;1.60;99.90;;;;;;5011431;28;20236;-78
2021/12/06 05:50:55;;;;;;;25.27;16.70;;;1.50;99.90;;;;;;5024668;28;20167;-78
2021/12/06 05:53:22;;;;;;;27.33;16.83;;;1.50;99.90;;;;;;5018479;28;20171;-78
2021/12/06 05:55:48;;;;;;;25.80;15.20;;;1.60;99.90;;;;;;5016759;28;20199;-80
2021/12/06 05:58:18;;;;;;;24.33;15.53;;;1.90;99.90;;;;;;5016467;28;20257;-78
2021/12/06 06:00:45;;;;;;;24.27;15.90;;;1.80;99.90;;;;;;5016482;28;20182;-80
2021/12/06 06:03:17;;;;;;;26.60;16.37;;;1.60;99.90;;;;;;5020416;28;20178;-80
2021/12/06 06:05:43;;;;;;;22.70;15.83;;;1.60;99.90;;;;;;5003679;28;20222;-80
2021/12/06 06:08:08;;;;;;;25.10;15.80;;;1.60;99.90;;;;;;5003251;28;20187;-79
2021/12/06 06:10:35;;;;;;;27.17;16.60;;;1.40;99.90;;;;;;5020435;28;20189;-80
2021/12/06 06:13:03;;;;;;;24.97;16.23;;;1.30;99.90;;;;;;5002781;28;20178;-79
2021/12/06 06:15:29;;;;;;;23.60;16.27;;;1.20;99.90;;;;;;5002870;28;20202;-79
2021/12/06 06:17:59;;;;;;;26.73;16.80;;;1.20;99.90;;;;;;5008552;28;20175;-79
2021/12/06 06:20:46;;;;;;;24.43;16.00;;;1.10;99.90;;;;;;5006381;28;20209;-78
2021/12/06 06:23:12;;;;;;;26.23;16.40;;;1.10;99.90;;;;;;5012925;28;20175;-79
2021/12/06 06:25:38;;;;;;;25.33;16.27;;;1.20;99.90;;;;;;5002822;28;20570;-79
2021/12/06 06:28:04;;;;;;;26.27;16.20;;;1.40;99.90;;;;;;5025803;28;20175;-78
2021/12/06 06:30:30;;;;;;;23.60;16.20;;;1.50;99.90;;;;;;5000930;28;20183;-79
2021/12/06 06:32:59;;;;;;;25.97;16.50;;;1.40;99.90;;;;;;5032426;28;20221;-79
2021/12/06 06:35:27;;;;;;;23.00;15.13;;;1.40;99.90;;;;;;5022242;28;20636;-79
2021/12/06 06:37:54;;;;;;;26.00;16.47;;;1.30;99.90;;;;;;5007806;28;20240;-79
2021/12/06 06:40:20;;;;;;;24.77;16.37;;;1.20;99.90;;;;;;5014968;28;20186;-79
2021/12/06 06:42:47;;;;;;;21.83;15.17;;;1.20;99.90;;;;;;5025569;28;20185;-79
2021/12/06 06:45:16;;;;;;;23.97;15.13;;;1.20;99.90;;;;;;5008099;28;20823;-79
2021/12/06 06:47:45;;;;;;;20.00;14.23;;;1.20;99.90;;;;;;5017657;28;20633;-79
2021/12/06 06:50:17;;;;;;;21.40;14.97;;;1.20;99.90;;;;;;5012637;28;20193;-82
2021/12/06 06:52:55;;;;;;;22.57;14.97;;;1.20;99.90;;;;;;5016645;28;20178;-79
2021/12/06 06:55:22;;;;;;;24.43;15.67;;;1.10;99.90;;;;;;5002695;28;20210;-79
2021/12/06 06:57:51;;;;;;;23.57;15.03;;;1.00;99.90;;;;;;5036096;28;20186;-79
2021/12/06 07:00:35;;;;;;;23.03;14.70;;;1.00;99.90;;;;;;5014414;28;20178;-79
2021/12/06 07:03:03;;;;;;;22.77;15.00;;;1.10;99.90;;;;;;5023445;28;20255;-79
2021/12/06 07:05:29;;;;;;;22.37;14.87;;;1.00;99.90;;;;;;5003496;28;20213;-79
2021/12/06 07:07:56;;;;;;;22.67;14.33;;;1.00;99.90;;;;;;5030540;28;20187;-79
2021/12/06 07:10:23;;;;;;;21.77;14.53;;;1.10;99.90;;;;;;5019466;28;20222;-79
2021/12/06 07:12:51;;;;;;;20.30;14.17;;;1.20;99.90;;;;;;5010300;28;20206;-79
2021/12/06 07:15:23;;;;;;;22.43;14.63;;;1.20;99.90;;;;;;5034562;28;20570;-79
2021/12/06 07:17:51;;;;;;;20.23;13.80;;;1.10;99.90;;;;;;5017482;28;20181;-77
2021/12/06 07:20:19;;;;;;;22.17;14.50;;;1.20;99.90;;;;;;5021649;28;20531;-79
2021/12/06 07:22:47;;;;;;;18.83;13.40;;;1.10;99.90;;;;;;5012997;28;20182;-79
2021/12/06 07:25:14;;;;;;;22.03;13.63;;;1.10;99.90;;;;;;5010551;28;20183;-79
2021/12/06 07:27:40;;;;;;;19.87;13.37;;;1.00;99.90;;;;;;5032152;28;20519;-78
2021/12/06 07:30:08;;;;;;;21.37;13.93;;;0.90;99.90;;;;;;5013985;28;20213;-78
2021/12/06 07:32:34;;;;;;;21.67;14.20;;;0.90;99.90;;;;;;5038763;28;20186;-78
2021/12/06 07:35:00;;;;;;;22.03;14.43;;;0.90;99.90;;;;;;5021259;28;20541;-78
2021/12/06 07:37:26;;;;;;;22.87;14.43;;;0.90;99.90;;;;;;5010676;28;20241;-78
2021/12/06 07:39:55;;;;;;;23.53;13.80;;;0.80;99.90;;;;;;5014821;28;20231;-79
2021/12/06 07:42:21;;;;;;;23.67;15.07;;;0.80;99.90;;;;;;5004125;28;20190;-79
2021/12/06 07:44:48;;;;;;;20.43;13.43;;;0.80;99.90;;;;;;5028091;28;20411;-79
2021/12/06 07:47:14;;;;;;;21.10;14.07;;;0.70;99.90;;;;;;5029471;28;20696;-79
2021/12/06 07:49:43;;;;;;;20.40;13.33;;;0.80;99.90;;;;;;5015364;28;20487;-79
2021/12/06 07:52:11;;;;;;;20.60;14.27;;;0.80;99.90;;;;;;5038601;28;20175;-79
2021/12/06 07:54:38;;;;;;;25.13;14.57;;;0.90;99.90;;;;;;5025981;28;20194;-80
2021/12/06 07:57:05;;;;;;;21.83;14.50;;;0.90;99.90;;;;;;5019727;28;20198;-78
2021/12/06 07:59:31;;;;;;;22.07;14.20;;;0.90;99.90;;;;;;5020129;28;20183;-78
2021/12/06 08:01:57;;;;;;;19.70;13.60;;;0.90;99.90;;;;;;5011115;28;20289;-79
2021/12/06 08:04:23;;;;;;;19.93;13.70;;;0.90;99.90;;;;;;5045510;28;20182;-79
2021/12/06 08:06:49;;;;;;;22.60;13.97;;;1.10;99.90;;;;;;5011464;28;20194;-79
2021/12/06 08:09:15;;;;;;;17.23;12.73;;;1.20;99.90;;;;;;5043193;28;20261;-80
2021/12/06 08:11:44;;;;;;;19.67;13.97;;;1.10;99.90;;;;;;5022126;28;20228;-79
2021/12/06 08:14:10;;;;;;;20.53;14.27;;;1.10;99.90;;;;;;5020001;28;20284;-80
2021/12/06 08:16:40;;;;;;;20.07;14.07;;;1.00;99.90;;;;;;5002152;28;20641;-79
2021/12/06 08:19:07;;;;;;;21.07;13.63;;;1.00;99.90;;;;;;5025886;28;20174;-79
2021/12/06 08:21:33;;;;;;;22.23;14.30;;;1.00;99.90;;;;;;5023881;28;20210;-79
2021/12/06 08:24:00;;;;;;;20.40;13.57;;;0.90;99.90;;;;;;5035777;28;20189;-80
2021/12/06 08:26:29;;;;;;;22.17;14.43;;;0.80;99.90;;;;;;5036956;28;20244;-77
2021/12/06 08:28:57;;;;;;;22.60;14.20;;;0.90;99.90;;;;;;5013891;28;20201;-78
2021/12/06 08:31:23;;;;;;;20.43;13.80;;;1.00;99.90;;;;;;5019836;28;20235;-79
2021/12/06 08:33:53;;;;;;;19.93;14.17;;;0.90;99.90;;;;;;5024940;28;20206;-78
2021/12/06 08:36:20;;;;;;;21.57;14.20;;;0.90;99.90;;;;;;5014847;28;20214;-78
2021/12/06 08:38:46;;;;;;;22.10;14.07;;;0.90;99.90;;;;;;5024252;28;20202;-79
2021/12/06 08:41:19;;;;;;;22.03;13.97;;;0.90;99.90;;;;;;5004949;28;20622;-79
2021/12/06 08:43:48;;;;;;;23.03;14.57;;;0.90;99.90;;;;;;5029597;28;20186;-79
2021/12/06 08:46:19;;;;;;;23.20;14.50;;;0.90;99.90;;;;;;5017150;28;20205;-79
2021/12/06 08:48:46;;;;;;;22.40;15.43;;;0.90;99.90;;;;;;5019951;28;20194;-79
2021/12/06 08:51:31;;;;;;;22.93;14.30;;;0.90;99.90;;;;;;5017961;28;20182;-79
2021/12/06 08:54:00;;;;;;;22.60;14.30;;;0.90;99.90;;;;;;5030800;28;20232;-79
2021/12/06 08:56:27;;;;;;;20.67;14.70;;;0.80;99.90;;;;;;5028059;28;20182;-79
2021/12/06 08:58:53;;;;;;;22.30;14.30;;;1.00;99.90;;;;;;5002476;28;20185;-79
2021/12/06 09:01:24;;;;;;;19.23;13.60;;;1.00;99.90;;;;;;5030474;28;20245;-79
2021/12/06 09:03:51;;;;;;;20.77;13.80;;;1.00;99.90;;;;;;5030994;28;20190;-78
2021/12/06 09:06:18;;;;;;;23.17;14.70;;;1.10;99.90;;;;;;5030500;28;20220;-79
2021/12/06 09:08:44;;;;;;;20.20;13.90;;;1.10;99.90;;;;;;5033488;28;20182;-79
2021/12/06 09:11:10;;;;;;;20.63;14.40;;;1.40;99.90;;;;;;5032299;28;20185;-78
2021/12/06 09:13:37;;;;;;;21.63;14.77;;;1.40;99.90;;;;;;5034174;28;20178;-79
2021/12/06 09:16:11;;;;;;;21.03;14.00;;;1.40;99.90;;;;;;5020274;28;20604;-80
2021/12/06 09:18:40;;;;;;;18.43;13.00;;;1.50;99.90;;;;;;5022554;28;20197;-78
2021/12/06 09:21:11;;;;;;;18.67;12.93;;;1.40;99.90;;;;;;5022761;28;20179;-79
2021/12/06 09:23:37;;;;;;;20.43;12.93;;;1.50;99.90;;;;;;5033073;28;20577;-78
2021/12/06 09:26:05;;;;;;;21.07;13.70;;;1.50;99.90;;;;;;5022882;28;20221;-78
2021/12/06 09:28:32;;;;;;;22.70;14.10;;;1.30;99.90;;;;;;5024100;28;20240;-80
2021/12/06 09:31:04;;;;;;;24.13;14.73;;;1.20;99.90;;;;;;5025066;28;20184;-80
2021/12/06 09:33:31;;;;;;;22.00;14.40;;;1.20;99.90;;;;;;5031242;28;20173;-79
2021/12/06 09:36:18;;;;;;;22.77;14.30;;;1.20;99.90;;;;;;5022896;28;20210;-79
2021/12/06 09:38:44;;;;;;;21.87;14.47;;;1.20;99.90;;;;;;5012292;28;20217;-78
2021/12/06 09:41:14;;;;;;;23.23;15.20;;;1.30;99.90;;;;;;5018176;28;20182;-78
2021/12/06 09:43:41;;;;;;;24.70;16.30;;;1.30;99.90;;;;;;5016814;28;20232;-78
2021/12/06 09:46:09;;;;;;;24.73;16.53;;;1.30;99.90;;;;;;5027554;28;20255;-77
2021/12/06 09:48:45;;;;;;;25.40;16.40;;;1.40;99.90;;;;;;5013199;28;20190;-78
2021/12/06 09:51:17;;;;;;;24.93;16.87;;;1.50;99.90;;;;;;5020775;28;20171;-78
2021/12/06 09:53:46;;;;;;;27.83;17.87;;;1.60;99.90;;;;;;5038688;28;20171;-77
2021/12/06 09:56:18;;;;;;;26.17;16.77;;;1.70;99.90;;;;;;5015230;28;20194;-78
2021/12/06 09:58:49;;;;;;;25.17;17.37;;;1.80;99.90;;;;;;5021365;28;20205;-77
2021/12/06 10:01:32;;;;;;;24.40;16.50;;;1.80;99.90;;;;;;5008289;28;20190;-78
2021/12/06 10:03:59;;;;;;;29.00;17.73;;;1.80;99.90;;;;;;5016763;28;20686;-78
2021/12/06 10:06:30;;;;;;;29.83;17.27;;;1.80;99.90;;;;;;5013830;28;20190;-77
2021/12/06 10:09:06;;;;;;;26.40;16.67;;;1.70;99.90;;;;;;5015890;28;20200;-77
2021/12/06 10:11:32;;;;;;;27.87;17.87;;;1.70;99.90;;;;;;5011469;28;20384;-78
2021/12/06 10:14:00;;;;;;;28.13;17.83;;;1.80;99.90;;;;;;5014389;28;20289;-77
2021/12/06 10:16:29;;;;;;;28.27;18.43;;;2.00;99.90;;;;;;5010252;28;20199;-77
2021/12/06 10:18:55;;;;;;;29.93;19.57;;;2.20;99.90;;;;;;5039468;28;20189;-78
2021/12/06 10:21:24;;;;;;;28.90;18.10;;;2.30;99.90;;;;;;5006086;28;20187;-77
2021/12/06 10:23:51;;;;;;;29.57;19.70;;;2.30;99.90;;;;;;5034589;28;20257;-77
2021/12/06 10:26:23;;;;;;;31.50;19.73;;;2.20;99.90;;;;;;5012925;28;20194;-78
2021/12/06 10:28:55;;;;;;;31.53;19.73;;;2.20;99.90;;;;;;5006233;28;20273;-77
2021/12/06 10:31:21;;;;;;;30.53;19.53;;;2.20;99.90;;;;;;5044321;28;20194;-77
2021/12/06 10:33:48;;;;;;;33.80;20.43;;;2.10;99.90;;;;;;5009721;28;20182;-77
2021/12/06 10:36:17;;;;;;;32.27;19.67;;;2.00;99.90;;;;;;5020296;28;20213;-78
2021/12/06 10:38:53;;;;;;;30.47;19.60;;;1.90;99.90;;;;;;5026154;28;20190;-79
2021/12/06 10:41:25;;;;;;;34.90;20.17;;;1.80;99.90;;;;;;5023814;28;20182;-79
2021/12/06 10:43:51;;;;;;;35.83;22.00;;;1.70;99.90;;;;;;5010330;28;20258;-77
2021/12/06 10:46:16;;;;;;;35.30;22.07;;;1.70;99.90;;;;;;5013103;28;20281;-78
2021/12/06 10:48:42;;;;;;;33.57;21.67;;;1.70;99.90;;;;;;5012826;28;20179;-78
2021/12/06 10:51:12;;;;;;;38.43;22.97;;;1.70;99.90;;;;;;5023783;28;20266;-77
2021/12/06 10:53:45;;;;;;;36.13;22.90;;;1.70;99.90;;;;;;5022642;28;20187;-78
2021/12/06 10:56:24;;;;;;;36.20;23.20;;;1.50;99.90;;;;;;5012917;28;20335;-78
2021/12/06 10:58:55;;;;;;;38.00;23.23;;;1.50;99.90;;;;;;5003238;28;20158;-77
2021/12/06 11:01:32;;;;;;;36.30;22.63;;;1.40;99.90;;;;;;5034864;28;20189;-79
2021/12/06 11:04:01;;;;;;;38.47;23.07;;;1.50;99.90;;;;;;5010595;28;20178;-78
2021/12/06 11:06:35;;;;;;;36.53;21.43;;;1.50;99.90;;;;;;5020496;28;20233;-77
2021/12/06 11:09:05;;;;;;;32.17;21.07;;;1.30;99.90;;;;;;5006530;28;20172;-78
2021/12/06 11:11:40;;;;;;;38.83;22.03;;;1.30;99.90;;;;;;5008418;28;20187;-78
2021/12/06 11:14:36;;;;;;;34.10;22.10;;;1.30;99.90;;;;;;5020177;28;20202;-78
2021/12/06 11:17:11;;;;;;;37.27;22.70;;;1.30;99.90;;;;;;5018282;28;20202;-79
2021/12/06 11:19:42;;;;;;;36.23;21.63;;;1.40;99.90;;;;;;5011848;28;20530;-77
2021/12/06 11:22:18;;;;;;;38.30;23.17;;;1.40;99.90;;;;;;5028657;28;20210;-78
2021/12/06 11:24:48;;;;;;;34.97;22.90;;;1.50;99.90;;;;;;5014084;28;20655;-77
2021/12/06 11:27:22;;;;;;;35.00;22.10;;;1.50;99.90;;;;;;5015474;28;20202;-78
2021/12/06 11:29:49;;;;;;;38.73;23.93;;;1.50;99.90;;;;;;5008199;28;20221;-78
2021/12/06 11:32:23;;;;;;;37.57;24.10;;;1.50;99.90;;;;;;5025184;28;20177;-76
2021/12/06 11:35:06;;;;;;;38.73;23.13;;;1.70;99.90;;;;;;5022729;28;20680;-78
2021/12/06 11:37:34;;;;;;;39.13;23.17;;;1.60;99.90;;;;;;5005678;28;20221;-82
2021/12/06 11:40:07;;;;;;;41.00;23.63;;;1.50;99.90;;;;;;5019179;28;20182;-78
2021/12/06 11:43:03;;;;;;;38.67;24.83;;;1.40;99.90;;;;;;5009011;28;20198;-78
2021/12/06 11:45:42;;;;;;;42.97;24.77;;;1.30;99.90;;;;;;5035735;28;20626;-77
2021/12/06 11:48:29;;;;;;;42.37;25.70;;;1.20;99.90;;;;;;5008862;28;20170;-77
2021/12/06 11:51:01;;;;;;;40.87;25.27;;;1.30;99.90;;;;;;5011317;28;20190;-77
2021/12/06 11:53:44;;;;;;;41.00;24.90;;;1.30;99.90;;;;;;5017717;28;20186;-77
2021/12/06 11:56:28;;;;;;;41.83;24.53;;;1.20;99.90;;;;;;5028223;28;20270;-78
2021/12/06 11:59:06;;;;;;;42.20;25.67;;;1.10;99.90;;;;;;5027906;28;20302;-77
2021/12/06 12:01:51;;;;;;;42.20;24.77;;;1.10;99.90;;;;;;5010389;28;20171;-77
2021/12/06 12:04:24;;;;;;;43.67;24.93;;;1.10;99.90;;;;;;5025344;28;20261;-77
2021/12/06 12:07:05;;;;;;;40.77;24.43;;;1.10;99.90;;;;;;5021486;28;20206;-79
2021/12/06 12:09:38;;;;;;;39.47;24.17;;;1.10;99.90;;;;;;5020882;28;20533;-78
2021/12/06 12:12:10;;;;;;;42.37;24.47;;;1.10;99.90;;;;;;5009903;28;20174;-77
2021/12/06 12:14:36;;;;;;;37.60;23.03;;;1.20;99.90;;;;;;5015887;28;20193;-78
2021/12/06 12:17:07;;;;;;;40.83;23.97;;;1.20;99.90;;;;;;5009523;28;20683;-78
2021/12/06 12:19:34;;;;;;;41.00;25.40;;;1.20;99.90;;;;;;5020137;28;20238;-77
2021/12/06 12:22:04;;;;;;;43.00;26.33;;;1.30;99.90;;;;;;5012919;28;20170;-78
2021/12/06 12:24:45;;;;;;;45.23;25.33;;;1.20;99.90;;;;;;5010991;28;20186;-78
2021/12/06 12:27:27;;;;;;;42.73;24.47;;;1.10;99.90;;;;;;5006737;28;20209;-77
2021/12/06 12:29:56;;;;;;;41.17;24.73;;;1.00;99.90;;;;;;5011732;28;20265;-76
2021/12/06 12:32:29;;;;;;;38.07;22.93;;;1.00;99.90;;;;;;5010131;28;20232;-78
2021/12/06 12:34:59;;;;;;;42.50;23.43;;;1.00;99.90;;;;;;5028391;28;20213;-77
2021/12/06 12:37:28;;;;;;;38.80;23.23;;;0.90;99.90;;;;;;5012167;28;20210;-78
2021/12/06 12:40:17;;;;;;;41.40;23.07;;;1.00;99.90;;;;;;5006964;28;20178;-79
2021/12/06 12:43:17;;;;;;;37.03;23.50;;;1.00;99.90;;;;;;5037227;28;20203;-77
2021/12/06 12:45:50;;;;;;;39.07;23.70;;;1.00;99.90;;;;;;5014960;28;20606;-77
2021/12/06 12:48:23;;;;;;;37.50;23.20;;;1.00;99.90;;;;;;5012491;28;20201;-78
2021/12/06 12:51:07;;;;;;;40.17;23.47;;;1.00;99.90;;;;;;5021878;28;20538;-78
2021/12/06 12:54:12;;;;;;;35.27;21.83;;;1.00;99.90;;;;;;5006588;28;20189;-78
2021/12/06 12:56:45;;;;;;;35.30;20.70;;;1.10;99.90;;;;;;5030892;28;20564;-77
2021/12/06 12:59:33;;;;;;;35.37;21.40;;;1.00;99.90;;;;;;5007833;28;20174;-79
2021/12/06 13:02:14;;;;;;;36.80;22.63;;;1.00;99.90;;;;;;5025278;28;20179;-79